sensor_id;sensor_type;location;lat;lon;timestamp;P1;durP1;ratioP1;P2;durP2;ratioP2
63046;SDS011;62025;39.238;9.126;2023-08-24T00:01:16;11.68;;;10.38;;
63046;SDS011;62025;39.238;9.126;2023-08-24T00:03:46;13.75;;;9.90;;
63046;SDS011;62025;39.238;9.126;2023-08-24T00:06:12;13.05;;;10.20;;
63046;SDS011;62025;39.238;9.126;2023-08-24T00:08:39;11.32;;;9.52;;
63046;SDS011;62025;39.238;9.126;2023-08-24T00:11:05;11.15;;;10.02;;
63046;SDS011;62025;39.238;9.126;2023-08-24T00:13:31;16.13;;;9.68;;
63046;SDS011;62025;39.238;9.126;2023-08-24T00:15:57;13.07;;;10.07;;
63046;SDS011;62025;39.238;9.126;2023-08-24T00:18:24;16.35;;;10.10;;
63046;SDS011;62025;39.238;9.126;2023-08-24T00:20:50;13.20;;;10.32;;
63046;SDS011;62025;39.238;9.126;2023-08-24T00:23:16;14.98;;;10.02;;
63046;SDS011;62025;39.238;9.126;2023-08-24T00:25:43;13.85;;;10.43;;
63046;SDS011;62025;39.238;9.126;2023-08-24T00:28:09;13.25;;;10.00;;
63046;SDS011;62025;39.238;9.126;2023-08-24T00:30:36;13.93;;;10.50;;
63046;SDS011;62025;39.238;9.126;2023-08-24T00:33:02;10.77;;;9.68;;
63046;SDS011;62025;39.238;9.126;2023-08-24T00:35:29;14.57;;;10.00;;
63046;SDS011;62025;39.238;9.126;2023-08-24T00:37:56;14.02;;;9.98;;
63046;SDS011;62025;39.238;9.126;2023-08-24T00:40:22;15.07;;;9.98;;
63046;SDS011;62025;39.238;9.126;2023-08-24T00:45:16;13.63;;;10.43;;
63046;SDS011;62025;39.238;9.126;2023-08-24T00:47:43;11.68;;;9.60;;
63046;SDS011;62025;39.238;9.126;2023-08-24T00:50:11;14.68;;;9.93;;
63046;SDS011;62025;39.238;9.126;2023-08-24T00:52:40;14.52;;;10.15;;
63046;SDS011;62025;39.238;9.126;2023-08-24T00:55:08;14.25;;;9.60;;
63046;SDS011;62025;39.238;9.126;2023-08-24T00:57:37;11.55;;;9.73;;
63046;SDS011;62025;39.238;9.126;2023-08-24T01:00:06;13.43;;;9.52;;
63046;SDS011;62025;39.238;9.126;2023-08-24T01:02:36;13.65;;;10.88;;
63046;SDS011;62025;39.238;9.126;2023-08-24T01:05:05;16.77;;;10.00;;
63046;SDS011;62025;39.238;9.126;2023-08-24T01:07:35;14.50;;;9.57;;
63046;SDS011;62025;39.238;9.126;2023-08-24T01:10:06;13.65;;;9.82;;
63046;SDS011;62025;39.238;9.126;2023-08-24T01:15:38;12.15;;;9.27;;
63046;SDS011;62025;39.238;9.126;2023-08-24T01:18:23;12.77;;;9.50;;
63046;SDS011;62025;39.238;9.126;2023-08-24T01:20:54;13.55;;;10.02;;
63046;SDS011;62025;39.238;9.126;2023-08-24T01:23:30;10.30;;;9.20;;
63046;SDS011;62025;39.238;9.126;2023-08-24T01:26:22;12.48;;;9.80;;
63046;SDS011;62025;39.238;9.126;2023-08-24T01:28:48;16.27;;;9.60;;
63046;SDS011;62025;39.238;9.126;2023-08-24T01:31:16;12.77;;;9.18;;
63046;SDS011;62025;39.238;9.126;2023-08-24T01:33:43;16.40;;;10.10;;
63046;SDS011;62025;39.238;9.126;2023-08-24T01:36:11;12.45;;;9.68;;
63046;SDS011;62025;39.238;9.126;2023-08-24T01:38:39;14.20;;;9.75;;
63046;SDS011;62025;39.238;9.126;2023-08-24T01:41:14;12.07;;;10.73;;
63046;SDS011;62025;39.238;9.126;2023-08-24T01:43:54;13.18;;;9.98;;
63046;SDS011;62025;39.238;9.126;2023-08-24T01:46:24;11.30;;;9.63;;
63046;SDS011;62025;39.238;9.126;2023-08-24T01:48:51;15.37;;;9.90;;
63046;SDS011;62025;39.238;9.126;2023-08-24T01:51:18;13.07;;;9.57;;
63046;SDS011;62025;39.238;9.126;2023-08-24T01:53:44;14.20;;;9.95;;
63046;SDS011;62025;39.238;9.126;2023-08-24T01:56:12;18.00;;;9.97;;
63046;SDS011;62025;39.238;9.126;2023-08-24T01:58:41;13.90;;;9.85;;
63046;SDS011;62025;39.238;9.126;2023-08-24T02:01:10;15.18;;;9.70;;
63046;SDS011;62025;39.238;9.126;2023-08-24T02:03:38;14.05;;;9.48;;
63046;SDS011;62025;39.238;9.126;2023-08-24T02:06:04;13.70;;;10.25;;
63046;SDS011;62025;39.238;9.126;2023-08-24T02:08:32;12.02;;;10.00;;
63046;SDS011;62025;39.238;9.126;2023-08-24T02:10:58;14.77;;;10.50;;
63046;SDS011;62025;39.238;9.126;2023-08-24T02:13:24;12.10;;;10.18;;
63046;SDS011;62025;39.238;9.126;2023-08-24T02:15:50;13.93;;;10.43;;
63046;SDS011;62025;39.238;9.126;2023-08-24T02:18:26;17.08;;;10.93;;
63046;SDS011;62025;39.238;9.126;2023-08-24T02:20:52;12.10;;;9.75;;
63046;SDS011;62025;39.238;9.126;2023-08-24T02:23:18;11.50;;;9.48;;
63046;SDS011;62025;39.238;9.126;2023-08-24T02:25:44;12.23;;;9.70;;
63046;SDS011;62025;39.238;9.126;2023-08-24T02:28:10;11.48;;;9.85;;
63046;SDS011;62025;39.238;9.126;2023-08-24T02:30:39;12.93;;;9.68;;
63046;SDS011;62025;39.238;9.126;2023-08-24T02:33:05;10.38;;;9.38;;
63046;SDS011;62025;39.238;9.126;2023-08-24T02:35:31;10.38;;;9.02;;
63046;SDS011;62025;39.238;9.126;2023-08-24T02:37:57;12.82;;;9.45;;
63046;SDS011;62025;39.238;9.126;2023-08-24T02:40:23;13.02;;;9.85;;
63046;SDS011;62025;39.238;9.126;2023-08-24T02:42:49;10.23;;;8.90;;
63046;SDS011;62025;39.238;9.126;2023-08-24T02:45:15;13.48;;;10.00;;
63046;SDS011;62025;39.238;9.126;2023-08-24T02:47:41;10.00;;;8.98;;
63046;SDS011;62025;39.238;9.126;2023-08-24T02:50:07;10.57;;;9.50;;
63046;SDS011;62025;39.238;9.126;2023-08-24T02:52:34;11.88;;;9.23;;
63046;SDS011;62025;39.238;9.126;2023-08-24T02:55:00;10.82;;;9.40;;
63046;SDS011;62025;39.238;9.126;2023-08-24T02:57:26;11.45;;;9.32;;
63046;SDS011;62025;39.238;9.126;2023-08-24T02:59:52;10.85;;;9.63;;
63046;SDS011;62025;39.238;9.126;2023-08-24T03:02:19;15.63;;;9.48;;
63046;SDS011;62025;39.238;9.126;2023-08-24T03:04:45;11.05;;;9.55;;
63046;SDS011;62025;39.238;9.126;2023-08-24T03:07:11;13.25;;;9.80;;
63046;SDS011;62025;39.238;9.126;2023-08-24T03:09:37;12.85;;;9.40;;
63046;SDS011;62025;39.238;9.126;2023-08-24T03:12:03;10.10;;;9.07;;
63046;SDS011;62025;39.238;9.126;2023-08-24T03:14:29;12.80;;;9.57;;
63046;SDS011;62025;39.238;9.126;2023-08-24T03:16:55;10.50;;;9.50;;
63046;SDS011;62025;39.238;9.126;2023-08-24T03:19:21;12.43;;;9.77;;
63046;SDS011;62025;39.238;9.126;2023-08-24T03:21:47;14.02;;;9.13;;
63046;SDS011;62025;39.238;9.126;2023-08-24T03:24:14;11.57;;;9.02;;
63046;SDS011;62025;39.238;9.126;2023-08-24T03:26:40;17.17;;;9.40;;
63046;SDS011;62025;39.238;9.126;2023-08-24T03:29:07;10.40;;;9.35;;
63046;SDS011;62025;39.238;9.126;2023-08-24T03:31:33;13.13;;;10.00;;
63046;SDS011;62025;39.238;9.126;2023-08-24T03:33:59;12.27;;;9.10;;
63046;SDS011;62025;39.238;9.126;2023-08-24T03:36:25;9.90;;;8.90;;
63046;SDS011;62025;39.238;9.126;2023-08-24T03:38:51;10.60;;;9.35;;
63046;SDS011;62025;39.238;9.126;2023-08-24T03:41:17;15.63;;;9.23;;
63046;SDS011;62025;39.238;9.126;2023-08-24T03:43:45;10.38;;;9.20;;
63046;SDS011;62025;39.238;9.126;2023-08-24T03:46:11;12.02;;;9.25;;
63046;SDS011;62025;39.238;9.126;2023-08-24T03:48:40;12.48;;;8.93;;
63046;SDS011;62025;39.238;9.126;2023-08-24T03:51:06;10.35;;;9.32;;
63046;SDS011;62025;39.238;9.126;2023-08-24T03:53:35;13.38;;;9.48;;
63046;SDS011;62025;39.238;9.126;2023-08-24T03:56:01;13.27;;;9.73;;
63046;SDS011;62025;39.238;9.126;2023-08-24T03:58:27;10.20;;;9.20;;
63046;SDS011;62025;39.238;9.126;2023-08-24T04:00:53;13.80;;;9.18;;
63046;SDS011;62025;39.238;9.126;2023-08-24T04:03:20;11.50;;;9.20;;
63046;SDS011;62025;39.238;9.126;2023-08-24T04:05:46;11.10;;;9.85;;
63046;SDS011;62025;39.238;9.126;2023-08-24T04:08:12;12.15;;;9.50;;
63046;SDS011;62025;39.238;9.126;2023-08-24T04:10:39;11.60;;;9.77;;
63046;SDS011;62025;39.238;9.126;2023-08-24T04:13:04;12.95;;;9.90;;
63046;SDS011;62025;39.238;9.126;2023-08-24T04:15:31;14.82;;;9.68;;
63046;SDS011;62025;39.238;9.126;2023-08-24T04:17:57;11.57;;;9.38;;
63046;SDS011;62025;39.238;9.126;2023-08-24T04:20:23;13.20;;;9.75;;
63046;SDS011;62025;39.238;9.126;2023-08-24T04:22:49;11.90;;;10.45;;
63046;SDS011;62025;39.238;9.126;2023-08-24T04:25:15;12.25;;;10.10;;
63046;SDS011;62025;39.238;9.126;2023-08-24T04:27:41;13.13;;;10.05;;
63046;SDS011;62025;39.238;9.126;2023-08-24T04:30:07;16.70;;;9.95;;
63046;SDS011;62025;39.238;9.126;2023-08-24T04:32:37;14.18;;;10.20;;
63046;SDS011;62025;39.238;9.126;2023-08-24T04:35:03;10.90;;;9.77;;
63046;SDS011;62025;39.238;9.126;2023-08-24T04:37:29;12.60;;;10.27;;
63046;SDS011;62025;39.238;9.126;2023-08-24T04:39:55;13.70;;;9.95;;
63046;SDS011;62025;39.238;9.126;2023-08-24T04:42:21;11.77;;;10.02;;
63046;SDS011;62025;39.238;9.126;2023-08-24T04:44:47;13.68;;;10.05;;
63046;SDS011;62025;39.238;9.126;2023-08-24T04:47:13;11.18;;;9.73;;
63046;SDS011;62025;39.238;9.126;2023-08-24T04:49:39;13.25;;;10.25;;
63046;SDS011;62025;39.238;9.126;2023-08-24T04:52:05;11.38;;;10.15;;
63046;SDS011;62025;39.238;9.126;2023-08-24T04:54:32;14.40;;;10.55;;
63046;SDS011;62025;39.238;9.126;2023-08-24T04:56:58;14.57;;;10.02;;
63046;SDS011;62025;39.238;9.126;2023-08-24T04:59:24;13.93;;;10.20;;
63046;SDS011;62025;39.238;9.126;2023-08-24T05:01:50;13.05;;;10.23;;
63046;SDS011;62025;39.238;9.126;2023-08-24T05:04:16;11.55;;;10.00;;
63046;SDS011;62025;39.238;9.126;2023-08-24T05:06:42;14.68;;;10.38;;
63046;SDS011;62025;39.238;9.126;2023-08-24T05:09:08;13.10;;;10.15;;
63046;SDS011;62025;39.238;9.126;2023-08-24T05:11:34;13.13;;;10.38;;
63046;SDS011;62025;39.238;9.126;2023-08-24T05:14:00;14.98;;;10.75;;
63046;SDS011;62025;39.238;9.126;2023-08-24T05:16:26;20.98;;;10.57;;
63046;SDS011;62025;39.238;9.126;2023-08-24T05:18:53;12.30;;;9.88;;
63046;SDS011;62025;39.238;9.126;2023-08-24T05:21:19;11.90;;;10.57;;
63046;SDS011;62025;39.238;9.126;2023-08-24T05:23:45;16.65;;;10.50;;
63046;SDS011;62025;39.238;9.126;2023-08-24T05:26:10;14.55;;;10.15;;
63046;SDS011;62025;39.238;9.126;2023-08-24T05:28:36;12.30;;;10.93;;
63046;SDS011;62025;39.238;9.126;2023-08-24T05:31:02;14.88;;;10.15;;
63046;SDS011;62025;39.238;9.126;2023-08-24T05:33:28;13.52;;;10.60;;
63046;SDS011;62025;39.238;9.126;2023-08-24T05:35:56;15.20;;;10.68;;
63046;SDS011;62025;39.238;9.126;2023-08-24T05:38:23;14.60;;;10.75;;
63046;SDS011;62025;39.238;9.126;2023-08-24T05:40:49;15.98;;;11.30;;
63046;SDS011;62025;39.238;9.126;2023-08-24T05:43:15;13.55;;;10.27;;
63046;SDS011;62025;39.238;9.126;2023-08-24T05:45:41;24.55;;;11.70;;
63046;SDS011;62025;39.238;9.126;2023-08-24T05:48:10;14.25;;;10.93;;
63046;SDS011;62025;39.238;9.126;2023-08-24T05:50:37;15.35;;;10.88;;
63046;SDS011;62025;39.238;9.126;2023-08-24T05:53:08;12.45;;;11.18;;
63046;SDS011;62025;39.238;9.126;2023-08-24T05:55:34;14.63;;;10.80;;
63046;SDS011;62025;39.238;9.126;2023-08-24T05:58:00;14.50;;;11.20;;
63046;SDS011;62025;39.238;9.126;2023-08-24T06:00:25;14.32;;;11.15;;
63046;SDS011;62025;39.238;9.126;2023-08-24T06:02:51;17.60;;;11.80;;
63046;SDS011;62025;39.238;9.126;2023-08-24T06:05:17;12.32;;;10.75;;
63046;SDS011;62025;39.238;9.126;2023-08-24T06:07:44;12.75;;;10.88;;
63046;SDS011;62025;39.238;9.126;2023-08-24T06:10:11;15.27;;;10.60;;
63046;SDS011;62025;39.238;9.126;2023-08-24T06:12:37;13.27;;;10.70;;
63046;SDS011;62025;39.238;9.126;2023-08-24T06:15:04;15.10;;;11.15;;
63046;SDS011;62025;39.238;9.126;2023-08-24T06:17:32;14.25;;;10.52;;
63046;SDS011;62025;39.238;9.126;2023-08-24T06:20:01;12.05;;;10.38;;
63046;SDS011;62025;39.238;9.126;2023-08-24T06:22:30;12.05;;;10.05;;
63046;SDS011;62025;39.238;9.126;2023-08-24T06:24:56;15.60;;;10.77;;
63046;SDS011;62025;39.238;9.126;2023-08-24T06:27:25;14.18;;;10.45;;
63046;SDS011;62025;39.238;9.126;2023-08-24T06:29:51;15.52;;;10.48;;
63046;SDS011;62025;39.238;9.126;2023-08-24T06:32:17;16.70;;;10.07;;
63046;SDS011;62025;39.238;9.126;2023-08-24T06:34:43;17.73;;;10.65;;
63046;SDS011;62025;39.238;9.126;2023-08-24T06:37:09;14.27;;;10.65;;
63046;SDS011;62025;39.238;9.126;2023-08-24T06:39:35;18.90;;;10.45;;
63046;SDS011;62025;39.238;9.126;2023-08-24T06:42:01;14.63;;;10.38;;
63046;SDS011;62025;39.238;9.126;2023-08-24T06:44:29;11.90;;;10.27;;
63046;SDS011;62025;39.238;9.126;2023-08-24T06:46:55;12.35;;;9.57;;
63046;SDS011;62025;39.238;9.126;2023-08-24T06:49:21;21.50;;;10.85;;
63046;SDS011;62025;39.238;9.126;2023-08-24T06:51:47;16.77;;;9.23;;
63046;SDS011;62025;39.238;9.126;2023-08-24T06:54:13;14.20;;;9.68;;
63046;SDS011;62025;39.238;9.126;2023-08-24T06:56:40;15.88;;;9.43;;
63046;SDS011;62025;39.238;9.126;2023-08-24T06:59:06;13.52;;;9.60;;
63046;SDS011;62025;39.238;9.126;2023-08-24T07:01:32;12.90;;;8.90;;
63046;SDS011;62025;39.238;9.126;2023-08-24T07:03:58;12.40;;;8.88;;
63046;SDS011;62025;39.238;9.126;2023-08-24T07:06:24;9.90;;;8.90;;
63046;SDS011;62025;39.238;9.126;2023-08-24T07:08:50;9.75;;;8.27;;
63046;SDS011;62025;39.238;9.126;2023-08-24T07:11:16;8.80;;;7.97;;
63046;SDS011;62025;39.238;9.126;2023-08-24T07:13:42;11.75;;;8.38;;
63046;SDS011;62025;39.238;9.126;2023-08-24T07:16:08;9.55;;;7.93;;
63046;SDS011;62025;39.238;9.126;2023-08-24T07:18:34;10.18;;;7.90;;
63046;SDS011;62025;39.238;9.126;2023-08-24T07:21:00;9.13;;;7.97;;
63046;SDS011;62025;39.238;9.126;2023-08-24T07:23:26;12.27;;;7.75;;
63046;SDS011;62025;39.238;9.126;2023-08-24T07:25:52;8.52;;;7.60;;
63046;SDS011;62025;39.238;9.126;2023-08-24T07:28:18;9.35;;;8.43;;
63046;SDS011;62025;39.238;9.126;2023-08-24T07:30:44;8.55;;;7.65;;
63046;SDS011;62025;39.238;9.126;2023-08-24T07:33:10;12.60;;;7.80;;
63046;SDS011;62025;39.238;9.126;2023-08-24T07:35:36;8.82;;;7.75;;
63046;SDS011;62025;39.238;9.126;2023-08-24T07:38:02;11.05;;;7.60;;
63046;SDS011;62025;39.238;9.126;2023-08-24T07:40:30;9.82;;;7.88;;
63046;SDS011;62025;39.238;9.126;2023-08-24T07:42:56;11.35;;;7.97;;
63046;SDS011;62025;39.238;9.126;2023-08-24T07:45:22;8.60;;;7.65;;
63046;SDS011;62025;39.238;9.126;2023-08-24T07:47:48;9.25;;;7.40;;
63046;SDS011;62025;39.238;9.126;2023-08-24T07:50:14;9.48;;;7.38;;
63046;SDS011;62025;39.238;9.126;2023-08-24T07:52:40;10.38;;;7.43;;
63046;SDS011;62025;39.238;9.126;2023-08-24T07:55:07;10.45;;;7.78;;
63046;SDS011;62025;39.238;9.126;2023-08-24T07:57:34;8.77;;;7.97;;
63046;SDS011;62025;39.238;9.126;2023-08-24T08:00:01;12.82;;;8.15;;
63046;SDS011;62025;39.238;9.126;2023-08-24T08:02:37;8.60;;;7.53;;
63046;SDS011;62025;39.238;9.126;2023-08-24T08:05:03;9.40;;;7.82;;
63046;SDS011;62025;39.238;9.126;2023-08-24T08:07:32;9.50;;;7.55;;
63046;SDS011;62025;39.238;9.126;2023-08-24T08:09:59;11.27;;;7.85;;
63046;SDS011;62025;39.238;9.126;2023-08-24T08:12:25;9.23;;;7.20;;
63046;SDS011;62025;39.238;9.126;2023-08-24T08:14:51;12.18;;;7.53;;
63046;SDS011;62025;39.238;9.126;2023-08-24T08:17:17;12.45;;;7.40;;
63046;SDS011;62025;39.238;9.126;2023-08-24T08:19:43;7.65;;;6.95;;
63046;SDS011;62025;39.238;9.126;2023-08-24T08:22:09;8.90;;;7.72;;
63046;SDS011;62025;39.238;9.126;2023-08-24T08:24:35;10.55;;;7.18;;
63046;SDS011;62025;39.238;9.126;2023-08-24T08:27:01;8.85;;;7.50;;
63046;SDS011;62025;39.238;9.126;2023-08-24T08:29:27;13.07;;;7.55;;
63046;SDS011;62025;39.238;9.126;2023-08-24T08:31:53;10.05;;;7.30;;
63046;SDS011;62025;39.238;9.126;2023-08-24T08:34:19;8.98;;;6.95;;
63046;SDS011;62025;39.238;9.126;2023-08-24T08:36:45;8.27;;;6.80;;
63046;SDS011;62025;39.238;9.126;2023-08-24T08:39:11;7.57;;;6.82;;
63046;SDS011;62025;39.238;9.126;2023-08-24T08:41:41;9.40;;;7.83;;
63046;SDS011;62025;39.238;9.126;2023-08-24T08:44:11;9.02;;;7.30;;
63046;SDS011;62025;39.238;9.126;2023-08-24T08:46:43;7.82;;;7.03;;
63046;SDS011;62025;39.238;9.126;2023-08-24T08:49:09;8.18;;;7.28;;
63046;SDS011;62025;39.238;9.126;2023-08-24T08:51:37;8.30;;;7.05;;
63046;SDS011;62025;39.238;9.126;2023-08-24T08:54:04;9.02;;;7.68;;
63046;SDS011;62025;39.238;9.126;2023-08-24T08:56:31;10.40;;;7.50;;
63046;SDS011;62025;39.238;9.126;2023-08-24T08:59:00;10.40;;;7.10;;
63046;SDS011;62025;39.238;9.126;2023-08-24T09:01:28;7.72;;;6.95;;
63046;SDS011;62025;39.238;9.126;2023-08-24T09:03:55;8.80;;;7.47;;
63046;SDS011;62025;39.238;9.126;2023-08-24T09:06:23;11.48;;;7.30;;
63046;SDS011;62025;39.238;9.126;2023-08-24T09:08:49;8.82;;;6.90;;
63046;SDS011;62025;39.238;9.126;2023-08-24T09:11:16;10.07;;;7.37;;
63046;SDS011;62025;39.238;9.126;2023-08-24T09:13:44;9.15;;;6.82;;
63046;SDS011;62025;39.238;9.126;2023-08-24T09:16:10;8.20;;;7.40;;
63046;SDS011;62025;39.238;9.126;2023-08-24T09:18:41;9.85;;;6.82;;
63046;SDS011;62025;39.238;9.126;2023-08-24T09:21:12;9.55;;;7.10;;
63046;SDS011;62025;39.238;9.126;2023-08-24T09:26:13;7.82;;;7.13;;
63046;SDS011;62025;39.238;9.126;2023-08-24T09:28:42;10.55;;;7.80;;
63046;SDS011;62025;39.238;9.126;2023-08-24T09:31:11;9.10;;;7.32;;
63046;SDS011;62025;39.238;9.126;2023-08-24T09:33:37;11.63;;;7.78;;
63046;SDS011;62025;39.238;9.126;2023-08-24T09:36:05;8.15;;;6.88;;
63046;SDS011;62025;39.238;9.126;2023-08-24T09:38:32;7.97;;;7.20;;
63046;SDS011;62025;39.238;9.126;2023-08-24T09:41:01;8.95;;;7.00;;
63046;SDS011;62025;39.238;9.126;2023-08-24T09:43:29;8.55;;;7.10;;
63046;SDS011;62025;39.238;9.126;2023-08-24T09:45:56;12.00;;;6.80;;
63046;SDS011;62025;39.238;9.126;2023-08-24T09:48:22;8.48;;;7.10;;
63046;SDS011;62025;39.238;9.126;2023-08-24T09:50:49;8.73;;;7.10;;
63046;SDS011;62025;39.238;9.126;2023-08-24T09:58:26;11.90;;;7.20;;
63046;SDS011;62025;39.238;9.126;2023-08-24T10:03:20;8.48;;;7.28;;
63046;SDS011;62025;39.238;9.126;2023-08-24T10:05:51;10.05;;;7.25;;
63046;SDS011;62025;39.238;9.126;2023-08-24T10:08:26;8.10;;;7.30;;
63046;SDS011;62025;39.238;9.126;2023-08-24T10:10:55;10.82;;;7.50;;
63046;SDS011;62025;39.238;9.126;2023-08-24T10:18:48;12.93;;;7.30;;
63046;SDS011;62025;39.238;9.126;2023-08-24T10:21:17;9.90;;;7.57;;
63046;SDS011;62025;39.238;9.126;2023-08-24T10:23:43;13.90;;;7.30;;
63046;SDS011;62025;39.238;9.126;2023-08-24T10:26:11;8.75;;;7.50;;
63046;SDS011;62025;39.238;9.126;2023-08-24T10:31:05;9.75;;;6.90;;
63046;SDS011;62025;39.238;9.126;2023-08-24T10:33:31;9.50;;;7.88;;
63046;SDS011;62025;39.238;9.126;2023-08-24T10:35:59;10.68;;;7.63;;
63046;SDS011;62025;39.238;9.126;2023-08-24T10:38:29;8.43;;;7.63;;
63046;SDS011;62025;39.238;9.126;2023-08-24T10:41:02;8.25;;;7.45;;
63046;SDS011;62025;39.238;9.126;2023-08-24T10:43:29;8.10;;;7.28;;
63046;SDS011;62025;39.238;9.126;2023-08-24T10:45:59;11.52;;;7.90;;
63046;SDS011;62025;39.238;9.126;2023-08-24T10:48:27;9.57;;;7.20;;
63046;SDS011;62025;39.238;9.126;2023-08-24T10:56:16;9.18;;;7.57;;
63046;SDS011;62025;39.238;9.126;2023-08-24T10:58:44;8.50;;;7.25;;
63046;SDS011;62025;39.238;9.126;2023-08-24T11:01:15;14.57;;;7.75;;
63046;SDS011;62025;39.238;9.126;2023-08-24T11:03:48;8.90;;;7.70;;
63046;SDS011;62025;39.238;9.126;2023-08-24T11:06:21;8.50;;;7.40;;
63046;SDS011;62025;39.238;9.126;2023-08-24T11:09:04;9.60;;;7.20;;
63046;SDS011;62025;39.238;9.126;2023-08-24T11:11:39;9.00;;;7.70;;
63046;SDS011;62025;39.238;9.126;2023-08-24T11:14:19;12.05;;;7.50;;
63046;SDS011;62025;39.238;9.126;2023-08-24T11:16:50;8.40;;;7.00;;
63046;SDS011;62025;39.238;9.126;2023-08-24T11:19:17;10.48;;;7.00;;
63046;SDS011;62025;39.238;9.126;2023-08-24T11:21:44;15.10;;;7.38;;
63046;SDS011;62025;39.238;9.126;2023-08-24T11:24:12;7.97;;;7.18;;
63046;SDS011;62025;39.238;9.126;2023-08-24T11:26:43;11.65;;;7.40;;
63046;SDS011;62025;39.238;9.126;2023-08-24T11:29:13;10.48;;;6.80;;
63046;SDS011;62025;39.238;9.126;2023-08-24T11:31:46;7.45;;;6.70;;
63046;SDS011;62025;39.238;9.126;2023-08-24T11:34:15;8.35;;;7.05;;
63046;SDS011;62025;39.238;9.126;2023-08-24T11:36:42;7.88;;;6.72;;
63046;SDS011;62025;39.238;9.126;2023-08-24T11:39:15;9.32;;;7.07;;
63046;SDS011;62025;39.238;9.126;2023-08-24T11:42:02;11.52;;;7.28;;
63046;SDS011;62025;39.238;9.126;2023-08-24T11:44:46;10.50;;;7.53;;
63046;SDS011;62025;39.238;9.126;2023-08-24T11:47:14;9.57;;;8.02;;
63046;SDS011;62025;39.238;9.126;2023-08-24T11:49:41;9.00;;;7.20;;
63046;SDS011;62025;39.238;9.126;2023-08-24T11:52:08;8.20;;;7.32;;
63046;SDS011;62025;39.238;9.126;2023-08-24T11:54:35;11.13;;;7.63;;
63046;SDS011;62025;39.238;9.126;2023-08-24T11:57:07;14.10;;;7.05;;
63046;SDS011;62025;39.238;9.126;2023-08-24T11:59:34;8.43;;;7.47;;
63046;SDS011;62025;39.238;9.126;2023-08-24T12:02:04;11.48;;;6.97;;
63046;SDS011;62025;39.238;9.126;2023-08-24T12:04:40;8.43;;;7.60;;
63046;SDS011;62025;39.238;9.126;2023-08-24T12:07:10;9.03;;;6.87;;
63046;SDS011;62025;39.238;9.126;2023-08-24T12:09:41;8.50;;;7.18;;
63046;SDS011;62025;39.238;9.126;2023-08-24T12:12:17;9.10;;;7.28;;
63046;SDS011;62025;39.238;9.126;2023-08-24T12:14:49;7.63;;;6.90;;
63046;SDS011;62025;39.238;9.126;2023-08-24T12:17:15;9.13;;;7.20;;
63046;SDS011;62025;39.238;9.126;2023-08-24T12:22:16;11.02;;;7.35;;
63046;SDS011;62025;39.238;9.126;2023-08-24T12:24:45;8.98;;;7.70;;
63046;SDS011;62025;39.238;9.126;2023-08-24T12:27:25;14.65;;;7.80;;
63046;SDS011;62025;39.238;9.126;2023-08-24T12:29:52;9.25;;;7.65;;
63046;SDS011;62025;39.238;9.126;2023-08-24T12:32:21;9.50;;;7.45;;
63046;SDS011;62025;39.238;9.126;2023-08-24T12:34:50;8.65;;;7.60;;
63046;SDS011;62025;39.238;9.126;2023-08-24T12:37:17;12.45;;;8.40;;
63046;SDS011;62025;39.238;9.126;2023-08-24T12:39:43;9.43;;;8.02;;
63046;SDS011;62025;39.238;9.126;2023-08-24T12:42:09;8.68;;;7.50;;
63046;SDS011;62025;39.238;9.126;2023-08-24T12:44:35;8.73;;;7.82;;
63046;SDS011;62025;39.238;9.126;2023-08-24T12:47:02;12.25;;;8.02;;
63046;SDS011;62025;39.238;9.126;2023-08-24T12:49:28;9.65;;;7.70;;
63046;SDS011;62025;39.238;9.126;2023-08-24T12:51:54;8.63;;;7.22;;
63046;SDS011;62025;39.238;9.126;2023-08-24T12:54:20;10.05;;;8.05;;
63046;SDS011;62025;39.238;9.126;2023-08-24T12:56:47;8.52;;;7.60;;
63046;SDS011;62025;39.238;9.126;2023-08-24T12:59:13;9.57;;;7.60;;
63046;SDS011;62025;39.238;9.126;2023-08-24T13:01:39;13.80;;;7.60;;
63046;SDS011;62025;39.238;9.126;2023-08-24T13:04:04;8.40;;;7.50;;
63046;SDS011;62025;39.238;9.126;2023-08-24T13:06:31;8.48;;;7.53;;
63046;SDS011;62025;39.238;9.126;2023-08-24T13:08:58;8.10;;;7.03;;
63046;SDS011;62025;39.238;9.126;2023-08-24T13:11:24;8.30;;;7.28;;
63046;SDS011;62025;39.238;9.126;2023-08-24T13:13:50;9.68;;;6.82;;
63046;SDS011;62025;39.238;9.126;2023-08-24T13:16:15;8.40;;;6.70;;
63046;SDS011;62025;39.238;9.126;2023-08-24T13:18:42;7.40;;;6.70;;
63046;SDS011;62025;39.238;9.126;2023-08-24T13:21:08;9.27;;;6.80;;
63046;SDS011;62025;39.238;9.126;2023-08-24T13:23:34;13.10;;;7.00;;
63046;SDS011;62025;39.238;9.126;2023-08-24T13:26:00;7.20;;;6.55;;
63046;SDS011;62025;39.238;9.126;2023-08-24T13:28:26;7.45;;;6.65;;
63046;SDS011;62025;39.238;9.126;2023-08-24T13:30:52;9.82;;;6.90;;
63046;SDS011;62025;39.238;9.126;2023-08-24T13:33:18;7.13;;;6.47;;
63046;SDS011;62025;39.238;9.126;2023-08-24T13:35:45;9.07;;;6.88;;
63046;SDS011;62025;39.238;9.126;2023-08-24T13:38:11;8.57;;;6.90;;
63046;SDS011;62025;39.238;9.126;2023-08-24T13:40:37;8.88;;;6.80;;
63046;SDS011;62025;39.238;9.126;2023-08-24T13:43:03;10.30;;;7.05;;
63046;SDS011;62025;39.238;9.126;2023-08-24T13:45:29;9.25;;;7.20;;
63046;SDS011;62025;39.238;9.126;2023-08-24T13:47:56;7.63;;;6.82;;
63046;SDS011;62025;39.238;9.126;2023-08-24T13:50:23;8.07;;;7.28;;
63046;SDS011;62025;39.238;9.126;2023-08-24T13:52:49;11.70;;;7.25;;
63046;SDS011;62025;39.238;9.126;2023-08-24T13:55:15;11.20;;;7.00;;
63046;SDS011;62025;39.238;9.126;2023-08-24T13:57:44;7.45;;;6.72;;
63046;SDS011;62025;39.238;9.126;2023-08-24T14:00:11;6.60;;;6.00;;
63046;SDS011;62025;39.238;9.126;2023-08-24T14:02:37;7.80;;;7.00;;
63046;SDS011;62025;39.238;9.126;2023-08-24T14:05:04;7.50;;;6.63;;
63046;SDS011;62025;39.238;9.126;2023-08-24T14:07:34;8.77;;;6.70;;
63046;SDS011;62025;39.238;9.126;2023-08-24T14:10:01;7.72;;;6.25;;
63046;SDS011;62025;39.238;9.126;2023-08-24T14:12:27;7.18;;;6.47;;
63046;SDS011;62025;39.238;9.126;2023-08-24T14:14:54;7.55;;;6.85;;
63046;SDS011;62025;39.238;9.126;2023-08-24T14:17:20;8.10;;;6.68;;
63046;SDS011;62025;39.238;9.126;2023-08-24T14:19:47;8.43;;;6.70;;
63046;SDS011;62025;39.238;9.126;2023-08-24T14:22:13;9.68;;;6.85;;
63046;SDS011;62025;39.238;9.126;2023-08-24T14:24:39;12.55;;;6.60;;
63046;SDS011;62025;39.238;9.126;2023-08-24T14:27:05;7.68;;;6.95;;
63046;SDS011;62025;39.238;9.126;2023-08-24T14:29:31;10.30;;;7.40;;
63046;SDS011;62025;39.238;9.126;2023-08-24T14:31:57;7.57;;;6.88;;
63046;SDS011;62025;39.238;9.126;2023-08-24T14:34:22;11.63;;;7.20;;
63046;SDS011;62025;39.238;9.126;2023-08-24T14:36:48;9.82;;;6.85;;
63046;SDS011;62025;39.238;9.126;2023-08-24T14:39:15;8.18;;;6.85;;
63046;SDS011;62025;39.238;9.126;2023-08-24T14:41:41;10.90;;;6.97;;
63046;SDS011;62025;39.238;9.126;2023-08-24T14:44:07;9.35;;;7.28;;
63046;SDS011;62025;39.238;9.126;2023-08-24T14:46:33;7.60;;;6.82;;
63046;SDS011;62025;39.238;9.126;2023-08-24T14:48:59;8.00;;;7.20;;
63046;SDS011;62025;39.238;9.126;2023-08-24T14:51:25;8.25;;;6.97;;
63046;SDS011;62025;39.238;9.126;2023-08-24T14:53:51;8.02;;;6.47;;
63046;SDS011;62025;39.238;9.126;2023-08-24T14:56:17;7.72;;;6.97;;
63046;SDS011;62025;39.238;9.126;2023-08-24T14:58:43;8.93;;;6.65;;
63046;SDS011;62025;39.238;9.126;2023-08-24T15:01:10;8.93;;;6.35;;
63046;SDS011;62025;39.238;9.126;2023-08-24T15:03:36;7.75;;;6.57;;
63046;SDS011;62025;39.238;9.126;2023-08-24T15:06:03;9.43;;;6.93;;
63046;SDS011;62025;39.238;9.126;2023-08-24T15:08:30;10.27;;;7.05;;